Tiempo atmosférico en la estación meteorológica de Aguilar De Campoo, Palencia (910 m.)



Fecha
DESCASC
Temp. máxima en grados centígrados (hora)
DESCASC
Temp. mínima en grados centígrados (hora)
DESCASC
Temp. media en grados centígrados
DESCASC
Racha de viento máxima en m/sg (hora)
DESCASC
Velocidad máxima media en intervalos de 10 minutos(hora)
DESCASC
Precipitaciones diarias en mm
DESCASC
Precipitaciones de 00:00 a 06:00 en mm
DESCASC
Precipitaciones de 06:00 a 12:00 en mm
DESCASC
Precipitaciones de 12:00 a 18:00 en mm
DESCASC
Precipitaciones de 18:00 a 24:00 en mm
DESCASC
22-11-2020 14.6 (15:30) -3 (08:40) 5.8 3.89 (06:00) 2.78 (06:00) 0 0 0 0 0
21-11-2020 15.2 (15:20) -1.2 (06:30) 7 6.39 (14:00) 3.61 (03:50) 0 0 0 0 0
20-11-2020 10.5 (15:50) 1.4 (06:40) 5.9 13.06 (10:30) 7.5 (10:30) 0 0 0 0 0
19-11-2020 12.8 (13:40) 2.4 (00:00) 7.6 9.72 (15:40) 6.11 (15:20) 0 0 0 0 0
18-11-2020 16.3 (15:20) 1.8 (00:00) 9 8.61 (15:30) 5 (15:40) 0.2 0 0 0 0.2
17-11-2020 15.9 (16:30) 0.1 (00:00) 8 6.39 (15:00) 3.89 (19:40) 0 0 0 0 0
16-11-2020 13.6 (15:30) 3.3 (00:00) 8.5 6.39 (10:00) 4.17 (10:00) 0 0 0 0 0
15-11-2020 15.1 (14:50) 8.9 (00:00) 12 11.11 (15:30) 5.56 (15:30) 2.2 0.2 0.4 1.2 0.4
14-11-2020 11.3 (13:40) 3.6 (00:00) 7.5 7.5 (16:50) 3.89 (01:30) 0.4 0 0 0 0.4
13-11-2020 15.3 (15:40) 3 (00:00) 9.2 7.22 (16:30) 3.89 (20:30) 0 0 0 0 0
12-11-2020 15.2 (15:40) 5 (00:00) 10.1 6.11 (12:50) 3.89 (13:00) 0 0 0 0 0
11-11-2020 11.8 (14:20) 0.6 (00:00) 6.2 11.67 (15:00) 6.39 (14:40) 0 0 0 0 0
10-11-2020 9.7 (15:00) 2.1 (00:00) 5.9 4.44 (18:00) 3.33 (01:20) 0 0 0 0 0
09-11-2020 13.1 (15:30) 5.3 (00:00) 9.2 6.94 (15:30) 3.89 (05:10) 0.4 0.4 0 0 0
08-11-2020 11.9 (12:50) 8.4 (00:00) 10.1 8.06 (09:50) 3.89 (13:20) 4.4 0 0 3.6 0.8
07-11-2020 13.2 (16:30) 9.8 (00:00) 11.5 10.83 (01:10) 5.28 (05:10) 4.2 4 0 0.2 0
06-11-2020 15.1 (19:20) 6.1 (00:00) 10.6 15.28 (22:00) 7.5 (22:00) 6.8 0 0 0 6.8
05-11-2020 13.3 (14:00) 4.5 (00:00) 8.9 8.89 (02:50) 5.28 (12:40) 0 0 0 0 0
04-11-2020 7 (13:50) -0.6 (-00:0) 3.2 10 (12:40) 5.56 (13:20) 0.4 0 0 0.4 0
03-11-2020 11.9 (12:40) 2.3 (00:00) 7.1 10.83 (15:10) 5.28 (14:00) 0.6 0.4 0.2 0 0
02-11-2020 17.3 (14:00) 8.4 (00:00) 12.8 8.33 (13:10) 5 (19:20) 8.4 0 0 0 8.4
01-11-2020 15.4 (14:20) 9.7 (00:00) 12.5 9.17 (14:20) 6.11 (14:30) 0 0 0 0 0
31-10-2020 15.6 (15:00) 4.4 (00:00) 10 10.28 (15:50) 5.83 (15:50) 0 0 0 0 0
30-10-2020 17.3 (15:10) 0.4 (00:00) 8.8 7.78 (13:10) 4.72 (13:10) 0 0 0 0 0
29-10-2020 16 (16:20) 2 (00:00) 9 7.22 (13:40) 4.17 (13:40) 0 0 0 0 0
28-10-2020 15.7 (14:50) 5 (00:00) 10.3 8.89 (13:30) 4.72 (15:10) 1.4 1.2 0.2 0 0

Gráficas

Temp. máximas Temp. mínimas Temp. medias Precipitaciones Rachas de viento máximas Velocidades máximas media en intervalos de 10 minutos

Datos horarios

Fecha y hora oficial Temperatura (ºC) Velocidad del viento (km/h) Dirección del viento Racha (km/h) Dirección de racha Precipitación (mm) Presión (hPa) Tendencia (hPa) Humedad (%)
2020-11-26 23:00:00 6 2 Este 9 Este 0 -- -- 93
2020-11-26 22:00:00 7 5 Este 9 Este 0 -- -- 92
2020-11-26 21:00:00 7.1 4 Sudeste 14 Sur 0 -- -- 92
2020-11-26 20:00:00 6.7 6 Sudeste 14 Sudeste 0 -- -- 92
2020-11-26 19:00:00 7.8 6 Sudeste 13 Sudeste 0 -- -- 88
2020-11-26 18:00:00 8.8 6 Sudeste 13 Sur 0 -- -- 85
2020-11-26 17:00:00 10.3 5 Sur 20 Sudoeste 0 -- -- 79
2020-11-26 16:00:00 11.6 10 Sudoeste 18 Sudoeste 0 -- -- 73
2020-11-26 15:00:00 12.4 4 Sur 14 Sur 0 -- -- 68
2020-11-26 14:00:00 12.1 5 Noroeste 14 Sudoeste 0 -- -- 70
2020-11-26 13:00:00 10.3 2 Sudoeste 7 Norte 0 -- -- 76
2020-11-26 12:00:00 9.6 2 Sur 9 Sudoeste 0 -- -- 80
2020-11-26 11:00:00 7.8 6 Sudoeste 11 Sudoeste 0 -- -- 87
2020-11-26 10:00:00 6.1 4 Sudeste 10 Sudeste 0 -- -- 95
2020-11-26 09:00:00 5.3 8 Sudeste 13 Sudeste 0 -- -- 97
2020-11-26 08:00:00 4.8 3 Sudeste 6 Sur 0 -- -- 97
2020-11-26 07:00:00 4.9 0 Calma 6 Este 0 -- -- 95
2020-11-26 06:00:00 5 2 Nordeste 7 Este 0 -- -- 95
2020-11-26 05:00:00 5.5 0 Calma 7 Sudeste 0 -- -- 92
2020-11-26 04:00:00 5.5 3 Sudeste 10 Este 0 -- -- 92
2020-11-26 03:00:00 5.3 4 Este 10 Este 0 -- -- 92
2020-11-26 02:00:00 5.1 4 Este 10 Este 0 -- -- 91
2020-11-26 01:00:00 4.7 4 Este 10 Sudeste 0 -- -- 92
2020-11-26 00:00:00 4.4 6 Este 9 Sudeste 0 -- -- 92
2020-11-25 23:00:00 3.5 0 Calma 7 Este 0 -- -- 94
2020-11-25 22:00:00 3.2 4 Norte 9 Este 0 -- -- 94
2020-11-25 21:00:00 3 3 Sudeste 7 Sudoeste 0 -- -- 90
2020-11-25 20:00:00 4.5 6 Sudoeste 13 Sudoeste 0 -- -- 87
2020-11-25 19:00:00 6.3 5 Sudoeste 14 Sudoeste 0 -- -- 80
2020-11-25 18:00:00 7.2 4 Sur 9 Sudoeste 0 -- -- 83
2020-11-25 17:00:00 8.8 2 Sudeste 6 Nordeste 0 -- -- 77
2020-11-25 16:00:00 9.1 3 Nordeste 12 Este 0 -- -- 76
2020-11-25 15:00:00 9.1 5 Nordeste 14 Nordeste 0 -- -- 75
2020-11-25 14:00:00 8.3 5 Este 14 Sudeste 0 -- -- 79
2020-11-25 13:00:00 8.2 7 Norte 18 Oeste 0 -- -- 78
2020-11-25 12:00:00 6.8 6 Noroeste 16 Noroeste 0 -- -- 86
2020-11-25 11:00:00 5.9 10 Oeste 19 Oeste 0 -- -- 91
2020-11-25 10:00:00 5.3 7 Noroeste 12 Noroeste 0 -- -- 94
2020-11-25 09:00:00 5.2 4 Noroeste 9 Oeste 0 -- -- 94
2020-11-25 08:00:00 5.1 4 Oeste 12 Norte 0 -- -- 94
2020-11-25 07:00:00 5.4 6 Noroeste 14 Noroeste 0 -- -- 94
2020-11-25 06:00:00 5.6 6 Norte 14 Norte 0 -- -- 93
2020-11-25 05:00:00 5.8 4 Oeste 21 Norte 0 -- -- 93
2020-11-25 04:00:00 6 6 Noroeste 17 Noroeste 0 -- -- 92
2020-11-25 03:00:00 6.6 9 Norte 18 Noroeste 0 -- -- 91
2020-11-25 02:00:00 7 9 Norte 16 Norte 0 -- -- 91
2020-11-25 01:00:00 7.3 5 Noroeste 17 Norte 0 -- -- 89
2020-11-25 00:00:00 7.3 9 Norte 17 Noroeste 0 -- -- 88
2020-11-24 23:00:00 7 8 Noroeste 14 Noroeste 0 -- -- 91
2020-11-24 22:00:00 6.9 3 Oeste 10 Norte 0 -- -- 88
2020-11-24 21:00:00 7.7 5 Norte 13 Noroeste 0 -- -- 86
2020-11-24 20:00:00 7.8 8 Norte 16 Norte 0 -- -- 85
2020-11-24 19:00:00 7.4 3 Norte 12 Noroeste 0 -- -- 84
2020-11-24 18:00:00 8.1 6 Noroeste 20 Oeste 0 -- -- 80
2020-11-24 17:00:00 9.9 9 Noroeste 19 Noroeste 0 -- -- 72
2020-11-24 16:00:00 10.6 10 Noroeste 24 Oeste 0 -- -- 68
2020-11-24 15:00:00 11.1 12 Noroeste 22 Noroeste 0 -- -- 66
2020-11-24 14:00:00 10.4 9 Oeste 20 Oeste 0 -- -- 69
2020-11-24 13:00:00 9.5 12 Oeste 21 Noroeste 0 -- -- 69
2020-11-24 12:00:00 9 6 Noroeste 16 Oeste 0 -- -- 68
2020-11-24 11:00:00 6 2 Sudoeste 5 Sur 0 -- -- 71
2020-11-24 10:00:00 0.5 0 Calma 2 Noroeste 0 -- -- 93
2020-11-24 09:00:00 -0.9 3 Nordeste 13 Este 0 -- -- 93
2020-11-24 08:00:00 -1.3 8 Este 13 Este 0 -- -- 94
2020-11-24 07:00:00 -1.9 0 Calma 3 Este 0 -- -- 95
2020-11-24 06:00:00 -1.3 0 Calma 8 Este 0 -- -- 96
2020-11-24 05:00:00 -1.2 3 Este 6 Este 0 -- -- 97
2020-11-24 04:00:00 -1.8 0 Calma 0 Calma 0 -- -- 95
2020-11-24 03:00:00 -1.5 0 Calma 4 Sudeste 0 -- -- 94
2020-11-24 02:00:00 -1.2 0 Calma 6 Este 0 -- -- 93
2020-11-24 01:00:00 -0.9 0 Calma 4 Sudeste 0 -- -- 92
2020-11-24 00:00:00 -0.2 0 Calma 7 Este 0 -- -- 90
2020-11-23 23:00:00 0.3 0 Calma 11 Este 0 -- -- 89
2020-11-23 22:00:00 1.8 0 Calma 9 Este 0 -- -- 84
2020-11-23 21:00:00 2.9 0 Calma 9 Este 0 -- -- 79
2020-11-23 20:00:00 3.8 0 Calma 4 Este 0 -- -- 77
2020-11-23 19:00:00 5.8 0 Calma 2 Sudeste 0 -- -- 71
2020-11-23 18:00:00 9.1 0 Calma 2 Norte 0 -- -- 69
2020-11-23 17:00:00 12.7 0 Calma 9 Sur 0 -- -- 62
2020-11-23 16:00:00 14.9 4 Sudoeste 12 Sur 0 -- -- 42
2020-11-23 15:00:00 14.9 5 Sudoeste 12 Sur 0 -- -- 44
2020-11-23 14:00:00 13.8 5 Oeste 9 Oeste 0 -- -- 48
2020-11-23 13:00:00 11.5 2 Noroeste 4 Norte 0 -- -- 60
2020-11-23 12:00:00 8.5 2 Noroeste 5 Norte 0 -- -- 74
2020-11-23 11:00:00 5.3 0 Calma 7 Sudeste 0 -- -- 83
2020-11-23 10:00:00 0.5 5 Sudeste 8 Sudeste 0 -- -- 92
2020-11-23 09:00:00 -2.3 0 Calma 12 Este 0 -- -- 96
2020-11-23 08:00:00 -2.5 5 Este 9 Este 0 -- -- 97
2020-11-23 07:00:00 -2.7 0 Calma 12 Este 0 -- -- 95
2020-11-23 06:00:00 -2.5 2 Nordeste 5 Este 0 -- -- 94
2020-11-23 05:00:00 -1.5 0 Calma 13 Este 0 -- -- 94
2020-11-23 04:00:00 -1.3 4 Este 10 Este 0 -- -- 95
2020-11-23 03:00:00 -0.6 5 Este 14 Este 0 -- -- 94
2020-11-23 02:00:00 -0.8 5 Este 10 Este 0 -- -- 94
2020-11-23 01:00:00 -0.2 2 Nordeste 8 Nordeste 0 -- -- 93
2020-11-23 00:00:00 0.8 3 Nordeste 13 Este 0 -- -- 91
2020-11-22 23:00:00 1.9 5 Este 14 Este 0 -- -- 90
2020-11-22 22:00:00 2 2 Este 10 Este 0 -- -- 88
2020-11-22 21:00:00 3.3 9 Este 13 Este 0 -- -- 85
2020-11-22 20:00:00 3.7 0 Calma 4 Nordeste 0 -- -- 83
2020-11-22 19:00:00 5.8 8 Este 13 Este 0 -- -- 78
2020-11-22 18:00:00 9.1 0 Calma 2 Oeste 0 -- -- 71
2020-11-22 17:00:00 13.5 0 Calma 9 Noroeste 0 -- -- 53
2020-11-22 16:00:00 14.5 6 Oeste 9 Oeste 0 -- -- 48
2020-11-22 15:00:00 14.1 6 Oeste 14 Oeste 0 -- -- 45
2020-11-22 14:00:00 13.3 6 Oeste 12 Oeste 0 -- -- 48
2020-11-22 13:00:00 12 7 Sudoeste 12 Sudoeste 0 -- -- 50
2020-11-22 12:00:00 9.8 3 Oeste 8 Sudoeste 0 -- -- 56
2020-11-22 11:00:00 6.6 3 Sudoeste 4 Sudoeste 0 -- -- 71
2020-11-22 10:00:00 1.4 5 Sudeste 9 Sudeste 0 -- -- 79
2020-11-22 09:00:00 -1.9 4 Este 11 Este 0 -- -- 92
2020-11-22 08:00:00 -2.1 0 Calma 13 Este 0 -- -- 87
2020-11-22 07:00:00 -2.7 0 Calma 14 Sudeste 0 -- -- 92
2020-11-22 06:00:00 -1.8 10 Este 14 Este 0 -- -- 90
2020-11-22 05:00:00 -2.3 0 Calma 5 Sudeste 0 -- -- 93
2020-11-22 04:00:00 -2.2 0 Calma 4 Este 0 -- -- 89
2020-11-22 03:00:00 -2.1 0 Calma 8 Sudeste 0 -- -- 90
2020-11-22 02:00:00 -1.9 0 Calma 5 Este 0 -- -- 89
2020-11-22 01:00:00 -1 0 Calma 13 Este 0 -- -- 86
2020-11-22 00:00:00 0.3 9 Este 14 Este 0 -- -- 80
2020-11-21 23:00:00 1.4 8 Este 12 Este 0 -- -- 74
2020-11-21 22:00:00 1.6 5 Este 13 Este 0 -- -- 73
2020-11-21 21:00:00 1.5 0 Calma 7 Sudeste 0 -- -- 76
2020-11-21 20:00:00 3.6 0 Calma 10 Este 0 -- -- 66
2020-11-21 19:00:00 5.7 2 Norte 8 Sudeste 0 -- -- 64
2020-11-21 18:00:00 8.9 2 Sur 14 Sur 0 -- -- 52
2020-11-21 17:00:00 14 6 Sur 13 Sur 0 -- -- 34
2020-11-21 16:00:00 14.9 9 Sur 18 Sudoeste 0 -- -- 30
2020-11-21 15:00:00 15 10 Sur 17 Sudoeste 0 -- -- 30
2020-11-21 14:00:00 14.5 9 Sur 23 Sudeste 0 -- -- 31
2020-11-21 13:00:00 13.5 10 Sur 18 Sur 0 -- -- 28
2020-11-21 12:00:00 11.3 6 Oeste 9 Oeste 0 -- -- 37
2020-11-21 11:00:00 7.7 2 Sur 5 Sudeste 0 -- -- 62
2020-11-21 10:00:00 2.6 0 Calma 13 Este 0 -- -- 87
2020-11-21 09:00:00 -0.7 9 Este 15 Este 0 -- -- 95
2020-11-21 08:00:00 -1.1 8 Este 14 Sudeste 0 -- -- 95
2020-11-21 07:00:00 -1.1 5 Este 12 Este 0 -- -- 96
2020-11-21 06:00:00 -0.8 0 Calma 14 Este 0 -- -- 95
2020-11-21 05:00:00 -0.6 3 Nordeste 12 Este 0 -- -- 95
2020-11-21 04:00:00 0.2 10 Este 19 Este 0 -- -- 94
2020-11-21 03:00:00 1.3 0 Calma 13 Sur 0 -- -- 93
2020-11-21 02:00:00 2.5 8 Sur 14 Sur 0 -- -- 90
2020-11-21 01:00:00 2.4 8 Sudeste 15 Sur 0 -- -- 94
2020-11-21 00:00:00 2.7 5 Este 9 Este 0 -- -- 94
2020-11-20 23:00:00 3.8 4 Sur 17 Sur 0 -- -- 92
2020-11-20 22:00:00 3.6 10 Sudeste 17 Sur 0 -- -- 93
2020-11-20 21:00:00 4.5 13 Sur 19 Sur 0 -- -- 91
2020-11-20 20:00:00 5.1 12 Sudeste 21 Sur 0 -- -- 91
2020-11-20 19:00:00 6 10 Sudeste 20 Sur 0 -- -- 86
2020-11-20 18:00:00 7.1 14 Sur 26 Sudeste 0 -- -- 82
2020-11-20 17:00:00 9 15 Sur 30 Sur 0 -- -- 72
2020-11-20 16:00:00 10.4 11 Sur 23 Sur 0 -- -- 59
2020-11-20 15:00:00 10 12 Sur 24 Sur 0 -- -- 63
2020-11-20 14:00:00 9.3 14 Sur 31 Sur 0 -- -- 69
2020-11-20 13:00:00 8.5 20 Sur 31 Sur 0 -- -- 72
2020-11-20 12:00:00 7.8 12 Sur 26 Sudeste 0 -- -- 75
2020-11-20 11:00:00 7 8 Sudoeste 47 Sudeste 0 -- -- 78
2020-11-20 10:00:00 5.7 15 Sur 33 Sur 0 -- -- 83
2020-11-20 09:00:00 4.5 11 Sur 29 Sur 0 -- -- 89
2020-11-20 08:00:00 4.2 15 Sur 27 Sur 0 -- -- 90
2020-11-20 07:00:00 2.7 10 Sur 22 Sur 0 -- -- 97
2020-11-20 06:00:00 3.1 7 Sudeste 14 Sudeste 0 -- -- 93
2020-11-20 05:00:00 4.2 9 Sudeste 18 Sudeste 0 -- -- 93
2020-11-20 04:00:00 4.5 10 Sur 21 Sur 0 -- -- 94
2020-11-20 03:00:00 4.6 11 Sur 23 Sur 0 -- -- 93
2020-11-20 02:00:00 5 11 Sur 23 Sudoeste 0 -- -- 94
2020-11-20 01:00:00 5.1 10 Sur 21 Sur 0 -- -- 95
2020-11-20 00:00:00 5.3 12 Sur 23 Sudeste 0 -- -- 96
2020-11-19 23:00:00 4.8 8 Sur 18 Sudoeste 0 -- -- 95
2020-11-19 22:00:00 5.5 8 Sur 27 Sur 0 -- -- 94
2020-11-19 21:00:00 6 13 Sur 26 Sur 0 -- -- 94
2020-11-19 20:00:00 6.3 12 Sur 31 Sur 0 -- -- 94
2020-11-19 19:00:00 6.5 15 Sur 30 Sur 0 -- -- 92
2020-11-19 18:00:00 7.3 15 Sur 31 Sur 0 -- -- 92
2020-11-19 17:00:00 9 18 Sur 35 Sur 0 -- -- 89
2020-11-19 16:00:00 10.1 17 Sur 35 Sur 0 -- -- 87
2020-11-19 15:00:00 12.4 20 Sur 30 Sur 0 -- -- 80
2020-11-19 14:00:00 12.7 12 Sur 27 Sur 0 -- -- 80
2020-11-19 13:00:00 12.6 12 Sur 28 Sudeste 0 -- -- 81
2020-11-19 12:00:00 11.9 17 Sur 28 Sur 0 -- -- 85
2020-11-19 11:00:00 11.5 12 Sur 26 Sur 0 -- -- 87
2020-11-19 10:00:00 9 11 Sur 20 Sur 0 -- -- 100
2020-11-19 09:00:00 4.9 5 Este 14 Este 0 -- -- 100
2020-11-19 08:00:00 3 0 Calma 22 Este 0 -- -- 99
2020-11-19 07:00:00 2.6 0 Calma 8 Este 0 -- -- 100
2020-11-19 06:00:00 3.1 4 Este 14 Este 0 -- -- 99
2020-11-19 05:00:00 3.4 7 Este 13 Este 0 -- -- 99
2020-11-19 04:00:00 3.2 3 Este 9 Este 0 -- -- 98
2020-11-19 03:00:00 3.5 0 Calma 11 Este 0 -- -- 98
2020-11-19 02:00:00 4.1 3 Nordeste 14 Este 0 -- -- 97
2020-11-19 01:00:00 5.1 3 Nordeste 10 Este 0 -- -- 97
2020-11-19 00:00:00 6.1 8 Este 15 Este 0.2 -- -- 97
2020-11-18 23:00:00 6.6 0 Calma 9 Este 0 -- -- 96
2020-11-18 22:00:00 7.5 0 Calma 4 Sudeste 0 -- -- 96
2020-11-18 21:00:00 8.6 0 Calma 7 Norte 0 -- -- 94
2020-11-18 20:00:00 9.3 3 Norte 8 Norte 0 -- -- 94
2020-11-18 19:00:00 10.6 4 Noroeste 8 Norte 0 -- -- 89
2020-11-18 18:00:00 12.8 6 Noroeste 21 Oeste 0 -- -- 85
2020-11-18 17:00:00 15.2 9 Noroeste 26 Noroeste 0 -- -- 75
2020-11-18 16:00:00 16.1 16 Noroeste 31 Noroeste 0 -- -- 73
2020-11-18 15:00:00 16.2 13 Noroeste 29 Norte 0 -- -- 75
2020-11-18 14:00:00 15.6 14 Norte 27 Noroeste 0 -- -- 78
2020-11-18 13:00:00 14.9 11 Oeste 26 Noroeste 0 -- -- 81
2020-11-18 12:00:00 13.1 9 Oeste 18 Noroeste 0 -- -- 86
2020-11-18 11:00:00 10.6 6 Oeste 18 Oeste 0 -- -- 93
2020-11-18 10:00:00 8.5 4 Noroeste 8 Norte 0 -- -- 100
2020-11-18 09:00:00 5.3 2 Sudoeste 8 Sudeste 0 -- -- 100
2020-11-18 08:00:00 4.6 2 Sudeste 10 Noroeste 0 -- -- 99
2020-11-18 07:00:00 4.2 3 Sudeste 8 Sudeste 0 -- -- 99
2020-11-18 06:00:00 4 4 Nordeste 15 Noroeste 0 -- -- 100
2020-11-18 05:00:00 2 0 Calma 6 Noroeste 0 -- -- 98
2020-11-18 04:00:00 1.8 0 Calma 2 Este 0 -- -- 96
2020-11-18 03:00:00 2.1 0 Calma 3 Este 0 -- -- 95
2020-11-18 02:00:00 2.8 0 Calma 9 Noroeste 0 -- -- 95
2020-11-18 01:00:00 3.2 0 Calma 2 Nordeste 0 -- -- 93
2020-11-18 00:00:00 4.4 0 Calma -- -- 0 -- -- 94
2020-11-17 23:00:00 5.5 0 Calma 3 Este 0 -- -- 92
2020-11-17 22:00:00 7 0 Calma 14 Noroeste 0 -- -- 88
2020-11-17 21:00:00 8.2 5 Norte 17 Noroeste 0 -- -- 87
2020-11-17 20:00:00 10.3 12 Noroeste 22 Noroeste 0 -- -- 85
2020-11-17 19:00:00 11.5 13 Noroeste 22 Norte 0 -- -- 80
2020-11-17 18:00:00 12.9 8 Noroeste 18 Oeste 0 -- -- 76
2020-11-17 17:00:00 15.6 9 Noroeste 20 Oeste 0 -- -- 67
2020-11-17 16:00:00 15.8 12 Oeste 20 Oeste 0 -- -- 71
2020-11-17 15:00:00 15.1 12 Oeste 23 Oeste 0 -- -- 75
2020-11-17 14:00:00 15 11 Oeste 20 Oeste 0 -- -- 74
2020-11-17 13:00:00 13 5 Oeste 15 Noroeste 0 -- -- 79
2020-11-17 12:00:00 11.4 8 Oeste 14 Noroeste 0 -- -- 84
2020-11-17 11:00:00 9.4 0 Calma 5 Oeste 0 -- -- 88
2020-11-17 10:00:00 4.7 4 Sudeste 9 Este 0 -- -- 98
2020-11-17 09:00:00 1.1 0 Calma 6 Este 0 -- -- 100
2020-11-17 08:00:00 0.4 0 Calma 5 Sudeste 0 -- -- 99
2020-11-17 07:00:00 0.9 0 Calma 8 Este 0 -- -- 98
2020-11-17 06:00:00 1.5 7 Este 12 Este 0 -- -- 99
2020-11-17 05:00:00 0.7 0 Calma 3 Este 0 -- -- 98
2020-11-17 04:00:00 1 0 Calma 2 Noroeste 0 -- -- 98
2020-11-17 03:00:00 1.9 0 Calma 12 Este 0 -- -- 97
2020-11-17 02:00:00 1.8 0 Calma 5 Sudeste 0 -- -- 97
2020-11-17 01:00:00 2.7 0 Calma 12 Este 0 -- -- 97
2020-11-17 00:00:00 3.3 3 Este 10 Este 0 -- -- 97
2020-11-16 23:00:00 4.3 8 Este 12 Este 0 -- -- 97
2020-11-16 22:00:00 4.3 0 Calma 12 Este 0 -- -- 94
2020-11-16 21:00:00 5.4 6 Este 10 Este 0 -- -- 94
2020-11-16 20:00:00 6.7 2 Nordeste 10 Este 0 -- -- 91
2020-11-16 19:00:00 8 0 Calma 3 Norte 0 -- -- 88
2020-11-16 18:00:00 10.5 0 Calma 5 Oeste 0 -- -- 80
2020-11-16 17:00:00 13 4 Oeste 9 Norte 0 -- -- 72
2020-11-16 16:00:00 13.5 4 Norte 11 Norte 0 -- -- 69
2020-11-16 15:00:00 13 5 Norte 12 Norte 0 -- -- 71
2020-11-16 14:00:00 11.9 5 Norte 12 Nordeste 0 -- -- 73
2020-11-16 13:00:00 11.6 2 Este 12 Sudoeste 0 -- -- 76
2020-11-16 12:00:00 9.8 5 Sur 17 Sur 0 -- -- 84
2020-11-16 11:00:00 8.9 12 Sur 20 Sudeste 0 -- -- 88
2020-11-16 10:00:00 8.8 15 Sur 23 Sur 0 -- -- 90
2020-11-16 09:00:00 7.7 8 Sur 15 Sur 0 -- -- 95
2020-11-16 08:00:00 7.7 8 Sur 18 Sur 0 -- -- 95
2020-11-16 07:00:00 7.7 5 Sur 12 Sur 0 -- -- 96
2020-11-16 06:00:00 8 7 Sur 15 Sur 0 -- -- 96
2020-11-16 05:00:00 8.1 9 Sur 23 Sur 0 -- -- 96
2020-11-16 04:00:00 8.5 8 Sur 18 Sur 0 -- -- 98
2020-11-16 03:00:00 8.5 13 Sur 21 Sudoeste 0 -- -- 97
2020-11-16 02:00:00 8.6 8 Sur 18 Sur 0 -- -- 97
2020-11-16 01:00:00 8.9 9 Sur 22 Sudeste 0 -- -- 96
2020-11-16 00:00:00 8.9 13 Sur 26 Sur 0 -- -- 95
2020-11-15 23:00:00 9.2 12 Sur 29 Sur 0 -- -- 95
2020-11-15 22:00:00 10.6 10 Sudoeste 19 Sur 0.2 -- -- 93
2020-11-15 21:00:00 12.8 4 Norte 14 Norte 0 -- -- 95
2020-11-15 20:00:00 13.1 7 Noroeste 15 Noroeste 0 -- -- 95
2020-11-15 19:00:00 13.1 0 Calma 14 Norte 0.2 -- -- 96
2020-11-15 18:00:00 13.4 6 Norte 22 Norte 0 -- -- 94
2020-11-15 17:00:00 13.4 12 Norte 33 Norte 0.8 -- -- 94
2020-11-15 16:00:00 14.1 14 Norte 40 Norte 0.4 -- -- 90
2020-11-15 15:00:00 15 17 Norte 35 Norte 0 -- -- 83
2020-11-15 14:00:00 15 14 Norte 36 Norte 0 -- -- 85
2020-11-15 13:00:00 14.3 14 Noroeste 33 Norte 0 -- -- 87
2020-11-15 12:00:00 13.4 10 Norte 31 Oeste 0 -- -- 91
2020-11-15 11:00:00 12.8 12 Noroeste 34 Oeste 0 -- -- 93
2020-11-15 10:00:00 12.1 11 Noroeste 31 Noroeste 0 -- -- 96
2020-11-15 09:00:00 11.2 9 Oeste 23 Oeste 0.2 -- -- 98
2020-11-15 08:00:00 11 8 Oeste 21 Noroeste 0.2 -- -- 97
2020-11-15 07:00:00 11.1 8 Noroeste 24 Noroeste 0 -- -- 96
2020-11-15 06:00:00 10.8 13 Noroeste 26 Oeste 0 -- -- 98
2020-11-15 05:00:00 10.9 10 Noroeste 25 Oeste 0 -- -- 97
2020-11-15 04:00:00 10.9 11 Norte 24 Norte 0 -- -- 96
2020-11-15 03:00:00 11 7 Noroeste 24 Oeste 0.2 -- -- 96
2020-11-15 02:00:00 11.3 6 Norte 17 Norte 0 -- -- 94
2020-11-15 01:00:00 11.4 6 Norte 17 Norte 0 -- -- 95
2020-11-15 00:00:00 11 6 Norte 15 Norte 0 -- -- 97
2020-11-14 23:00:00 10.8 10 Norte 17 Norte 0 -- -- 96
2020-11-14 22:00:00 10.6 13 Norte 21 Norte 0 -- -- 97
2020-11-14 21:00:00 10.3 9 Norte 17 Norte 0 -- -- 97
2020-11-14 20:00:00 10.2 4 Norte 10 Norte 0.4 -- -- 96
2020-11-14 19:00:00 10.4 4 Noroeste 12 Norte 0 -- -- 95
2020-11-14 18:00:00 10.8 7 Norte 17 Norte 0 -- -- 91
2020-11-14 17:00:00 11 12 Norte 27 Norte 0 -- -- 89
2020-11-14 16:00:00 10.7 8 Norte 18 Norte 0 -- -- 90
2020-11-14 15:00:00 10.6 9 Norte 20 Norte 0 -- -- 88
2020-11-14 14:00:00 11.2 9 Norte 22 Noroeste 0 -- -- 84
2020-11-14 13:00:00 11.1 9 Noroeste 23 Norte 0 -- -- 85
2020-11-14 12:00:00 9.3 11 Norte 19 Oeste 0 -- -- 89
2020-11-14 11:00:00 8.9 6 Noroeste 18 Norte 0 -- -- 90
2020-11-14 10:00:00 7.5 9 Noroeste 18 Noroeste 0 -- -- 95
2020-11-14 09:00:00 6.7 5 Oeste 18 Noroeste 0 -- -- 96
2020-11-14 08:00:00 5.9 7 Noroeste 14 Noroeste 0 -- -- 99
2020-11-14 07:00:00 5.1 4 Oeste 8 Oeste 0 -- -- 98
2020-11-14 06:00:00 4.1 0 Calma 3 Noroeste 0 -- -- 98
2020-11-14 05:00:00 4.1 0 Calma 4 Sudoeste 0 -- -- 96
2020-11-14 04:00:00 5.1 3 Sur 15 Norte 0 -- -- 96
2020-11-14 03:00:00 5.2 5 Noroeste 13 Norte 0 -- -- 95
2020-11-14 02:00:00 6.7 5 Noroeste 23 Norte 0 -- -- 90
2020-11-14 01:00:00 4.2 8 Noroeste 15 Norte 0 -- -- 98
2020-11-14 00:00:00 4.1 0 Calma 7 Norte 0 -- -- 95
2020-11-13 23:00:00 5 3 Sur 4 Sur 0 -- -- 92
2020-11-13 22:00:00 6.9 0 Calma 17 Norte 0 -- -- 89
2020-11-13 21:00:00 8.4 7 Norte 22 Norte 0 -- -- 87
2020-11-13 20:00:00 7.9 2 Nordeste 13 Noroeste 0 -- -- 88
2020-11-13 19:00:00 10.5 5 Noroeste 16 Noroeste 0 -- -- 82
2020-11-13 18:00:00 12.1 6 Oeste 19 Oeste 0 -- -- 78
2020-11-13 17:00:00 14.8 6 Norte 26 Norte 0 -- -- 64
2020-11-13 16:00:00 15.3 9 Noroeste 21 Noroeste 0 -- -- 65
2020-11-13 15:00:00 15.1 9 Noroeste 20 Noroeste 0 -- -- 68
2020-11-13 14:00:00 14.3 10 Noroeste 23 Oeste 0 -- -- 68
2020-11-13 13:00:00 13.3 11 Noroeste 21 Oeste 0 -- -- 73
2020-11-13 12:00:00 12 14 Oeste 21 Oeste 0 -- -- 78
2020-11-13 11:00:00 9 5 Norte 9 Norte 0 -- -- 95
2020-11-13 10:00:00 5.1 0 Calma 14 Este 0 -- -- 98
2020-11-13 09:00:00 3.4 2 Este 15 Este 0 -- -- 99
2020-11-13 08:00:00 3.1 0 Calma 9 Este 0 -- -- 97
2020-11-13 07:00:00 4.3 4 Este 8 Este 0 -- -- 98
2020-11-13 06:00:00 4.7 4 Este 10 Este 0 -- -- 98
2020-11-13 05:00:00 4.3 0 Calma 5 Este 0 -- -- 98
2020-11-13 04:00:00 4.6 0 Calma 4 Este 0 -- -- 99
2020-11-13 03:00:00 4.2 0 Calma 3 Nordeste 0 -- -- 99
2020-11-13 02:00:00 4.4 0 Calma 5 Sudeste 0 -- -- 98
2020-11-13 01:00:00 5.1 0 Calma 3 Norte 0 -- -- 98
2020-11-13 00:00:00 5.1 3 Sudeste 5 Sudeste 0 -- -- 98
2020-11-12 23:00:00 5.1 0 Calma 5 Nordeste 0 -- -- 97
2020-11-12 22:00:00 5.5 0 Calma 5 Norte 0 -- -- 95
2020-11-12 21:00:00 6.8 0 Calma 4 Nordeste 0 -- -- 94
2020-11-12 20:00:00 8.2 2 Nordeste 12 Noroeste 0 -- -- 90
2020-11-12 19:00:00 10.1 7 Noroeste 15 Noroeste 0 -- -- 89
2020-11-12 18:00:00 12.3 4 Oeste 14 Oeste 0 -- -- 80
2020-11-12 17:00:00 14.4 6 Oeste 14 Oeste 0 -- -- 74
2020-11-12 16:00:00 14.9 8 Oeste 18 Oeste 0 -- -- 73
2020-11-12 15:00:00 14.7 12 Noroeste 19 Noroeste 0 -- -- 69
2020-11-12 14:00:00 13.8 11 Noroeste 21 Oeste 0 -- -- 75
2020-11-12 13:00:00 12.3 14 Oeste 22 Oeste 0 -- -- 83
2020-11-12 12:00:00 11.4 7 Oeste 13 Noroeste 0 -- -- 87
2020-11-12 11:00:00 9 6 Oeste 17 Oeste 0 -- -- 94
2020-11-12 10:00:00 8.1 5 Noroeste 10 Noroeste 0 -- -- 96
2020-11-12 09:00:00 6.9 0 Calma 3 Sudeste 0 -- -- 98
2020-11-12 08:00:00 6.4 4 Norte 12 Noroeste 0 -- -- 96
2020-11-12 07:00:00 7.4 2 Noroeste 5 Norte 0 -- -- 96
2020-11-12 06:00:00 7.7 2 Noroeste 12 Oeste 0 -- -- 94
2020-11-12 05:00:00 7.8 8 Noroeste 17 Norte 0 -- -- 94
2020-11-12 04:00:00 7.6 9 Norte 15 Norte 0 -- -- 94
2020-11-12 03:00:00 7.7 9 Norte 19 Norte 0 -- -- 94
2020-11-12 02:00:00 7.8 9 Norte 17 Norte 0 -- -- 93
2020-11-12 01:00:00 7.2 3 Norte 18 Norte 0 -- -- 93
2020-11-12 00:00:00 8 10 Noroeste 17 Norte 0 -- -- 93
2020-11-11 23:00:00 8.1 9 Noroeste 17 Noroeste 0 -- -- 91
2020-11-11 22:00:00 8.2 4 Oeste 14 Oeste 0 -- -- 91
2020-11-11 21:00:00 8.4 6 Noroeste 25 Noroeste 0 -- -- 88
2020-11-11 20:00:00 8.4 4 Nordeste 30 Noroeste 0 -- -- 85
2020-11-11 19:00:00 9 21 Norte 31 Norte 0 -- -- 82
2020-11-11 18:00:00 9.3 11 Norte 29 Norte 0 -- -- 80
2020-11-11 17:00:00 9.9 14 Norte 32 Norte 0 -- -- 77
2020-11-11 16:00:00 10.8 21 Norte 39 Norte 0 -- -- 72
2020-11-11 15:00:00 11.7 19 Norte 42 Noroeste 0 -- -- 71
2020-11-11 14:00:00 11.6 21 Norte 40 Norte 0 -- -- 73
2020-11-11 13:00:00 9.3 12 Noroeste 31 Noroeste 0 -- -- 88
2020-11-11 12:00:00 7.8 17 Noroeste 30 Noroeste 0 -- -- 90
2020-11-11 11:00:00 6.9 11 Noroeste 20 Noroeste 0 -- -- 100
2020-11-11 10:00:00 5.4 12 Noroeste 20 Noroeste 0 -- -- 100
2020-11-11 09:00:00 2.4 0 Calma 6 Este 0 -- -- 100
2020-11-11 08:00:00 1.6 4 Noroeste 8 Norte 0 -- -- 99
2020-11-11 07:00:00 2.4 2 Sur 9 Noroeste 0 -- -- 100
2020-11-11 06:00:00 1.2 3 Nordeste 7 Sudeste 0 -- -- 99
2020-11-11 05:00:00 0.6 0 Calma 5 Sudeste 0 -- -- 99
2020-11-11 04:00:00 0.8 0 Calma 9 Este 0 -- -- 98
2020-11-11 03:00:00 1.4 0 Calma 3 Este 0 -- -- 98
2020-11-11 02:00:00 1.9 0 Calma 2 Noroeste 0 -- -- 98
2020-11-11 01:00:00 2.4 0 Calma 7 Sudeste 0 -- -- 97
2020-11-11 00:00:00 3.1 4 Este 8 Este 0 -- -- 97
2020-11-10 23:00:00 3.6 0 Calma 4 Sudeste 0 -- -- 96
2020-11-10 22:00:00 4.2 0 Calma 5 Este 0 -- -- 94
2020-11-10 21:00:00 6.1 0 Calma 10 Norte 0 -- -- 90
2020-11-10 20:00:00 8 6 Noroeste 14 Noroeste 0 -- -- 88
2020-11-10 19:00:00 8.5 6 Noroeste 13 Noroeste 0 -- -- 88
2020-11-10 18:00:00 8.8 8 Noroeste 16 Noroeste 0 -- -- 88
2020-11-10 17:00:00 8.9 4 Norte 12 Norte 0 -- -- 89
2020-11-10 16:00:00 8.9 9 Norte 15 Norte 0 -- -- 88
2020-11-10 15:00:00 9.7 5 Noroeste 12 Noroeste 0 -- -- 87
2020-11-10 14:00:00 9.4 3 Nordeste 12 Oeste 0 -- -- 85
2020-11-10 13:00:00 9 4 Sudeste 9 Sur 0 -- -- 87
2020-11-10 12:00:00 8.5 2 Sudeste 7 Norte 0 -- -- 93
2020-11-10 11:00:00 7 4 Norte 9 Este 0 -- -- 100
2020-11-10 10:00:00 4.2 8 Este 10 Este 0 -- -- 99
2020-11-10 09:00:00 2.8 7 Este 12 Sudeste 0 -- -- 100
2020-11-10 08:00:00 2.2 6 Este 13 Este 0 -- -- 99
2020-11-10 07:00:00 2.6 10 Este 14 Este 0 -- -- 99
2020-11-10 06:00:00 3 4 Este 12 Este 0 -- -- 99
2020-11-10 05:00:00 2.7 6 Este 12 Este 0 -- -- 99
2020-11-10 04:00:00 2.2 4 Este 12 Este 0 -- -- 98
2020-11-10 03:00:00 2.2 4 Este 9 Este 0 -- -- 97
2020-11-10 02:00:00 3.5 6 Este 14 Este 0 -- -- 98
2020-11-10 01:00:00 3.9 3 Este 9 Este 0 -- -- 96
2020-11-10 00:00:00 5.3 4 Este 14 Este 0 -- -- 96
2020-11-09 23:00:00 6.2 2 Este 14 Este 0 -- -- 94
2020-11-09 22:00:00 7.7 0 Calma 12 Este 0 -- -- 95
2020-11-09 21:00:00 8.4 3 Este 8 Este 0 -- -- 94
2020-11-09 20:00:00 9.5 3 Nordeste 14 Norte 0 -- -- 89
2020-11-09 19:00:00 9.9 5 Norte 13 Noroeste 0 -- -- 89
2020-11-09 18:00:00 10.4 7 Norte 14 Noroeste 0 -- -- 86
2020-11-09 17:00:00 11.6 6 Noroeste 15 Noroeste 0 -- -- 80
2020-11-09 16:00:00 12.2 6 Norte 25 Noroeste 0 -- -- 76
2020-11-09 15:00:00 12.3 9 Norte 22 Norte 0 -- -- 77
2020-11-09 14:00:00 11.2 14 Norte 22 Norte 0 -- -- 83
2020-11-09 13:00:00 11.1 13 Norte 24 Norte 0 -- -- 79
2020-11-09 12:00:00 10.8 12 Norte 22 Norte 0 -- -- 82
2020-11-09 11:00:00 10.6 11 Norte 23 Norte 0 -- -- 85
2020-11-09 10:00:00 10.1 6 Norte 15 Noroeste 0 -- -- 90
2020-11-09 09:00:00 8.8 6 Norte 17 Norte 0 -- -- 95
2020-11-09 08:00:00 8.2 8 Norte 18 Norte 0 -- -- 94
2020-11-09 07:00:00 8.3 8 Norte 18 Norte 0 -- -- 94
2020-11-09 06:00:00 8.7 6 Noroeste 24 Norte 0 -- -- 94
2020-11-09 05:00:00 8.8 10 Norte 17 Norte 0 -- -- 94
2020-11-09 04:00:00 9.2 7 Norte 17 Norte 0 -- -- 95
2020-11-09 03:00:00 9.1 6 Norte 15 Noroeste 0 -- -- 96
2020-11-09 02:00:00 9.1 9 Norte 20 Norte 0.2 -- -- 95
2020-11-09 01:00:00 9.2 4 Noroeste 12 Oeste 0.2 -- -- 94
2020-11-09 00:00:00 9.2 3 Norte 11 Nordeste 0.2 -- -- 95
2020-11-08 23:00:00 9.3 5 Noroeste 19 Oeste 0 -- -- 94
2020-11-08 22:00:00 9.8 8 Norte 21 Noroeste 0.4 -- -- 94
2020-11-08 21:00:00 10 5 Noroeste 22 Noroeste 0.2 -- -- 93
2020-11-08 20:00:00 10.7 9 Noroeste 20 Norte 0 -- -- 92
2020-11-08 19:00:00 10.6 5 Noroeste 13 Norte 0 -- -- 94
2020-11-08 18:00:00 10.4 7 Noroeste 15 Oeste 0 -- -- 95
2020-11-08 17:00:00 10 5 Noroeste 21 Nordeste 0.6 -- -- 93
2020-11-08 16:00:00 10.2 9 Norte 15 Nordeste 2.2 -- -- 94
2020-11-08 15:00:00 10.5 6 Norte 26 Oeste 0.4 -- -- 94
2020-11-08 14:00:00 10.8 12 Oeste 26 Noroeste 0.4 -- -- 90
2020-11-08 13:00:00 11.7 12 Noroeste 24 Noroeste 0 -- -- 84
2020-11-08 12:00:00 11.2 10 Noroeste 23 Noroeste 0 -- -- 84
2020-11-08 11:00:00 11.7 13 Noroeste 28 Noroeste 0 -- -- 81
2020-11-08 10:00:00 9.8 5 Oeste 29 Norte 0 -- -- 86
2020-11-08 09:00:00 8.5 7 Noroeste 25 Noroeste 0 -- -- 91
2020-11-08 08:00:00 8.6 8 Noroeste 19 Oeste 0 -- -- 90
2020-11-08 07:00:00 8.7 4 Oeste 21 Oeste 0 -- -- 91
2020-11-08 06:00:00 8.9 10 Noroeste 23 Noroeste 0 -- -- 92
2020-11-08 05:00:00 8.8 4 Sudoeste 17 Oeste 0 -- -- 92
2020-11-08 04:00:00 9.1 6 Noroeste 22 Noroeste 0 -- -- 91
2020-11-08 03:00:00 9.8 5 Noroeste 14 Noroeste 0 -- -- 88
2020-11-08 02:00:00 9.8 5 Oeste 14 Noroeste 0 -- -- 89
2020-11-08 01:00:00 10.2 5 Noroeste 18 Noroeste 0 -- -- 86
2020-11-08 00:00:00 10.7 7 Noroeste 24 Norte 0 -- -- 84
2020-11-07 23:00:00 11 12 Norte 21 Norte 0 -- -- 84
2020-11-07 22:00:00 11.2 12 Norte 21 Norte 0 -- -- 83
2020-11-07 21:00:00 11.4 6 Norte 17 Norte 0 -- -- 79
2020-11-07 20:00:00 11.5 6 Norte 14 Norte 0 -- -- 78
2020-11-07 19:00:00 11.8 9 Noroeste 19 Noroeste 0 -- -- 77
2020-11-07 18:00:00 12.3 12 Norte 31 Norte 0 -- -- 73
2020-11-07 17:00:00 13.1 13 Norte 28 Norte 0 -- -- 71
2020-11-07 16:00:00 12.8 13 Norte 27 Norte 0 -- -- 73
2020-11-07 15:00:00 12.4 13 Norte 28 Norte 0 -- -- 79
2020-11-07 14:00:00 12.3 12 Norte 33 Norte 0 -- -- 80
2020-11-07 13:00:00 11.8 15 Norte 31 Oeste 0.2 -- -- 88
2020-11-07 12:00:00 11.5 7 Norte 17 Noroeste 0 -- -- 89
2020-11-07 11:00:00 10.6 4 Norte 20 Norte 0 -- -- 93
2020-11-07 10:00:00 10.4 7 Noroeste 24 Noroeste 0 -- -- 94
2020-11-07 09:00:00 10.3 12 Oeste 31 Noroeste 0 -- -- 92
2020-11-07 08:00:00 10 6 Noroeste 24 Oeste 0 -- -- 93
2020-11-07 07:00:00 10.3 12 Oeste 24 Oeste 0 -- -- 91
2020-11-07 06:00:00 10.6 7 Noroeste 33 Oeste 0 -- -- 91
2020-11-07 05:00:00 11.1 18 Oeste 36 Oeste 2.6 -- -- 92
2020-11-07 04:00:00 11.7 10 Oeste 22 Oeste 0.2 -- -- 93
2020-11-07 03:00:00 11.9 10 Oeste 26 Oeste 0.2 -- -- 91
2020-11-07 02:00:00 11.9 13 Oeste 39 Oeste 0 -- -- 89
2020-11-07 01:00:00 12.1 17 Noroeste 34 Sudoeste 1 -- -- 90
2020-11-07 00:00:00 9.8 11 Este 15 Este 0.2 -- -- 95
2020-11-06 23:00:00 10.1 2 Noroeste 46 Oeste 5.2 -- -- 93
2020-11-06 22:00:00 12.4 27 Noroeste 55 Norte 1.4 -- -- 83
2020-11-06 21:00:00 13.6 5 Sur 22 Sudoeste 0 -- -- 81
2020-11-06 20:00:00 14.2 7 Sur 30 Oeste 0 -- -- 79
2020-11-06 19:00:00 14.7 13 Oeste 29 Oeste 0 -- -- 78
2020-11-06 18:00:00 13.3 8 Oeste 17 Sudoeste 0 -- -- 86
2020-11-06 17:00:00 13.4 4 Sudoeste 19 Sudoeste 0 -- -- 88
2020-11-06 16:00:00 13.2 8 Sudoeste 29 Sudoeste 0 -- -- 87
2020-11-06 15:00:00 13.3 14 Sudoeste 28 Sudoeste 0 -- -- 86
2020-11-06 14:00:00 13.3 14 Sudoeste 28 Sur 0 -- -- 84
2020-11-06 13:00:00 13 15 Sudoeste 29 Sudoeste 0 -- -- 84
2020-11-06 12:00:00 12.7 14 Sudoeste 27 Sudoeste 0 -- -- 86
2020-11-06 11:00:00 11.1 10 Sudoeste 20 Sudoeste 0 -- -- 95
2020-11-06 10:00:00 9.2 4 Sudoeste 11 Sudoeste 0 -- -- 99
2020-11-06 09:00:00 6.8 0 Calma 14 Este 0 -- -- 99
2020-11-06 08:00:00 6.4 3 Este 14 Este 0 -- -- 98
2020-11-06 07:00:00 6.1 4 Este 12 Sudeste 0 -- -- 98
2020-11-06 06:00:00 6.6 0 Calma 5 Sudeste 0 -- -- 98
2020-11-06 05:00:00 6.8 0 Calma 9 Sudoeste 0 -- -- 96
2020-11-06 04:00:00 7.1 0 Calma 4 Norte 0 -- -- 96
2020-11-06 03:00:00 8.2 3 Este 8 Sur 0 -- -- 95
2020-11-06 02:00:00 9 4 Sur 13 Sur 0 -- -- 94
2020-11-06 01:00:00 9.4 9 Sur 16 Sudoeste 0 -- -- 95
2020-11-06 00:00:00 9.2 3 Sudeste 7 Sudeste 0 -- -- 95
2020-11-05 23:00:00 9.4 2 Sur 18 Sur 0 -- -- 92
2020-11-05 22:00:00 9.2 4 Sudeste 17 Sudeste 0 -- -- 90
2020-11-05 21:00:00 8.9 8 Sudeste 17 Sur 0 -- -- 89
2020-11-05 20:00:00 9.7 8 Sur 15 Sur 0 -- -- 85
2020-11-05 19:00:00 10.2 6 Sur 15 Sur 0 -- -- 80
2020-11-05 18:00:00 10.9 5 Sudoeste 15 Sur 0 -- -- 75
2020-11-05 17:00:00 11.4 9 Sur 25 Sur 0 -- -- 72
2020-11-05 16:00:00 12 12 Sur 26 Sudoeste 0 -- -- 71
2020-11-05 15:00:00 12.6 14 Sur 27 Sur 0 -- -- 67
2020-11-05 14:00:00 13.3 15 Sur 28 Sur 0 -- -- 67
2020-11-05 13:00:00 12.3 17 Sur 29 Sur 0 -- -- 69
2020-11-05 12:00:00 10.8 15 Sur 31 Sur 0 -- -- 74
2020-11-05 11:00:00 9.8 15 Sur 30 Sudoeste 0 -- -- 79
2020-11-05 10:00:00 8.3 15 Sur 27 Sur 0 -- -- 85
2020-11-05 09:00:00 7.5 9 Sur 21 Sur 0 -- -- 87
2020-11-05 08:00:00 6.9 12 Sudeste 21 Sudeste 0 -- -- 89
2020-11-05 07:00:00 6.6 9 Sudeste 22 Sudeste 0 -- -- 89
2020-11-05 06:00:00 6.1 9 Sur 27 Sudeste 0 -- -- 90
2020-11-05 05:00:00 5.7 12 Sur 27 Sudeste 0 -- -- 90
2020-11-05 04:00:00 5.3 9 Sur 28 Sur 0 -- -- 89
2020-11-05 03:00:00 5.1 12 Sur 32 Sur 0 -- -- 87
2020-11-05 02:00:00 4.9 18 Sur 32 Sur 0 -- -- 85
2020-11-05 01:00:00 4.7 18 Sur 30 Sur 0 -- -- 86
2020-11-05 00:00:00 4.5 13 Sur 29 Sur 0 -- -- 85
2020-11-04 23:00:00 4.5 14 Sur 26 Sudeste 0 -- -- 84
2020-11-04 22:00:00 4.2 13 Sur 23 Sur 0 -- -- 87
2020-11-04 21:00:00 3.9 9 Sur 27 Sudeste 0 -- -- 84
2020-11-04 20:00:00 4.2 10 Sur 25 Sudeste 0 -- -- 84
2020-11-04 19:00:00 4.3 10 Sudeste 21 Sur 0 -- -- 87
2020-11-04 18:00:00 4.5 11 Sur 34 Sur 0.2 -- -- 89
2020-11-04 17:00:00 5.4 13 Sur 29 Sur 0.2 -- -- 82
2020-11-04 16:00:00 6.7 16 Sudeste 35 Sur 0 -- -- 76
2020-11-04 15:00:00 6.8 16 Sur 34 Sur 0 -- -- 78
2020-11-04 14:00:00 6.9 15 Sur 32 Sur 0 -- -- 79
2020-11-04 13:00:00 6.5 18 Sur 36 Sur 0 -- -- 80
2020-11-04 12:00:00 5.9 13 Sudeste 32 Sur 0 -- -- 87
2020-11-04 11:00:00 6.4 12 Sudeste 28 Sudeste 0 -- -- 82
2020-11-04 10:00:00 4.3 11 Sudeste 22 Sudeste 0 -- -- 89
2020-11-04 09:00:00 3.6 8 Sur 21 Sur 0 -- -- 93
2020-11-04 08:00:00 2.6 3 Sur 9 Sudeste 0 -- -- 94
2020-11-04 07:00:00 2.3 4 Sudeste 15 Sur 0 -- -- 97
2020-11-04 06:00:00 0.3 6 Sudeste 11 Este 0 -- -- 98
2020-11-04 05:00:00 -0.5 2 Este 9 Sudeste 0 -- -- 97
2020-11-04 04:00:00 -0.5 0 Calma 13 Sudeste 0 -- -- 95
2020-11-04 03:00:00 0.3 6 Sudeste 10 Sudeste 0 -- -- 95
2020-11-04 02:00:00 1.7 4 Sudeste 17 Sur 0 -- -- 94
2020-11-04 01:00:00 2.4 6 Sur 17 Sur 0 -- -- 94
2020-11-04 00:00:00 2.6 8 Sur 18 Sur 0 -- -- 96
2020-11-03 23:00:00 2.5 7 Sur 16 Sur 0 -- -- 93
2020-11-03 22:00:00 3.3 5 Sudeste 13 Sur 0 -- -- 89
2020-11-03 21:00:00 4.1 11 Sur 23 Sur 0 -- -- 90
2020-11-03 20:00:00 4.5 13 Sur 23 Sur 0 -- -- 93
2020-11-03 19:00:00 4.7 7 Sur 15 Sur 0 -- -- 85
2020-11-03 18:00:00 5.7 8 Sudeste 26 Sudeste 0 -- -- 79
2020-11-03 17:00:00 7.7 11 Sudeste 35 Sur 0 -- -- 74
2020-11-03 16:00:00 9.5 14 Sur 39 Sur 0 -- -- 72
2020-11-03 15:00:00 10.6 14 Sur 34 Sudeste 0 -- -- 69
2020-11-03 14:00:00 11.2 19 Sur 35 Sur 0 -- -- 69
2020-11-03 13:00:00 11.8 15 Sur 31 Sudeste 0 -- -- 68
2020-11-03 12:00:00 11.6 12 Sudeste 30 Sudeste 0 -- -- 71
2020-11-03 11:00:00 10 18 Sur 37 Sur 0.2 -- -- 71
2020-11-03 10:00:00 8.5 10 Sudeste 28 Sur 0 -- -- 75
2020-11-03 09:00:00 6.7 9 Sur 14 Sur 0 -- -- 81
2020-11-03 08:00:00 6.8 2 Este 18 Sur 0 -- -- 90
2020-11-03 07:00:00 7 7 Sur 21 Sur 0 -- -- 90
2020-11-03 06:00:00 7.3 13 Sur 23 Sur 0 -- -- 91
2020-11-03 05:00:00 7.7 12 Sur 20 Sur 0 -- -- 93
2020-11-03 04:00:00 7.7 11 Sur 23 Sur 0 -- -- 95
2020-11-03 03:00:00 7.9 14 Sur 26 Sur 0 -- -- 94
2020-11-03 02:00:00 7.9 11 Sur 23 Sur 0 -- -- 97
2020-11-03 01:00:00 8.1 12 Sur 22 Sur 0.4 -- -- 97
2020-11-03 00:00:00 8.4 10 Sur 22 Sur 4.8 -- -- 97
2020-11-02 23:00:00 8.7 9 Sur 29 Sur 1.8 -- -- 97
2020-11-02 22:00:00 8.8 14 Sur 26 Sur 0.2 -- -- 96
2020-11-02 21:00:00 9.1 9 Sur 25 Sur 1.4 -- -- 96
2020-11-02 20:00:00 9.7 16 Sur 30 Sudeste 0.2 -- -- 92
2020-11-02 19:00:00 10.8 14 Sur 28 Sur 0 -- -- 91
2020-11-02 18:00:00 13.2 12 Sudeste 20 Sur 0 -- -- 86
2020-11-02 17:00:00 14.3 8 Oeste 22 Oeste 0 -- -- 85
2020-11-02 16:00:00 15.2 13 Oeste 26 Noroeste 0 -- -- 82
2020-11-02 15:00:00 16.7 10 Oeste 26 Norte 0 -- -- 78
2020-11-02 14:00:00 17.3 14 Noroeste 30 Norte 0 -- -- 73
2020-11-02 13:00:00 16.3 15 Norte 28 Norte 0 -- -- 77
2020-11-02 12:00:00 14.9 12 Noroeste 23 Noroeste 0 -- -- 86
2020-11-02 11:00:00 13.3 6 Norte 18 Norte 0 -- -- 91
2020-11-02 10:00:00 12.5 10 Norte 28 Norte 0 -- -- 95
2020-11-02 09:00:00 12.5 9 Norte 18 Norte 0 -- -- 94
2020-11-02 08:00:00 12.4 10 Norte 21 Norte 0 -- -- 94
2020-11-02 07:00:00 12.6 12 Norte 24 Noroeste 0 -- -- 95
2020-11-02 06:00:00 12.8 14 Norte 26 Norte 0 -- -- 94
2020-11-02 05:00:00 13 12 Norte 25 Norte 0 -- -- 95
2020-11-02 04:00:00 13 10 Norte 21 Norte 0 -- -- 96
2020-11-02 03:00:00 13.2 7 Norte 13 Noroeste 0 -- -- 95
2020-11-02 02:00:00 13 7 Noroeste 12 Noroeste 0 -- -- 97
2020-11-02 01:00:00 12.9 6 Norte 15 Noroeste 0 -- -- 98
2020-11-02 00:00:00 12.9 8 Norte 13 Norte 0 -- -- 97
2020-11-01 23:00:00 12.8 4 Norte 15 Noroeste 0 -- -- 97
2020-11-01 22:00:00 12.8 10 Norte 20 Norte 0 -- -- 96
2020-11-01 21:00:00 13.3 12 Norte 24 Norte 0 -- -- 92
2020-11-01 20:00:00 13.1 13 Norte 23 Norte 0 -- -- 91
2020-11-01 19:00:00 13.2 14 Norte 22 Norte 0 -- -- 90
2020-11-01 18:00:00 13.4 6 Norte 25 Noroeste 0 -- -- 91
2020-11-01 17:00:00 13.6 12 Noroeste 22 Noroeste 0 -- -- 90
2020-11-01 16:00:00 14.1 10 Noroeste 28 Noroeste 0 -- -- 88
2020-11-01 15:00:00 14.9 17 Noroeste 33 Noroeste 0 -- -- 84
2020-11-01 14:00:00 14.7 13 Noroeste 26 Noroeste 0 -- -- 88
2020-11-01 13:00:00 12.1 5 Sudoeste 26 Noroeste 0 -- -- 95
2020-11-01 12:00:00 12.1 4 Oeste 13 Norte 0 -- -- 94
2020-11-01 11:00:00 11.8 9 Norte 19 Norte 0 -- -- 95
2020-11-01 10:00:00 11.3 9 Noroeste 15 Noroeste 0 -- -- 96
2020-11-01 09:00:00 10.7 6 Norte 13 Norte 0 -- -- 98
2020-11-01 08:00:00 10.2 7 Noroeste 17 Noroeste 0 -- -- 98
2020-11-01 07:00:00 9.8 5 Este 13 Noroeste 0 -- -- 97
2020-11-01 06:00:00 10 7 Norte 17 Norte 0 -- -- 96
2020-11-01 05:00:00 10.2 6 Norte 18 Norte 0 -- -- 96
2020-11-01 04:00:00 11 8 Noroeste 26 Noroeste 0 -- -- 94
2020-11-01 03:00:00 11.1 10 Noroeste 19 Norte 0 -- -- 94
2020-11-01 02:00:00 11.8 13 Norte 24 Norte 0 -- -- 91
2020-11-01 01:00:00 12 14 Norte 24 Nordeste 0 -- -- 89
2020-11-01 00:00:00 11.6 9 Norte 21 Norte 0 -- -- 90
2020-10-31 23:00:00 11.5 15 Norte 24 Norte 0 -- -- 89
2020-10-31 22:00:00 9.4 4 Norte 18 Norte 0 -- -- 92
2020-10-31 21:00:00 10.4 8 Norte 21 Norte 0 -- -- 92
2020-10-31 20:00:00 10.7 13 Noroeste 24 Norte 0 -- -- 92
2020-10-31 19:00:00 11.5 16 Noroeste 28 Noroeste 0 -- -- 89
2020-10-31 18:00:00 12.6 10 Norte 32 Norte 0 -- -- 85
2020-10-31 17:00:00 14.4 13 Norte 31 Noroeste 0 -- -- 78
2020-10-31 16:00:00 14.9 19 Noroeste 37 Noroeste 0 -- -- 80
2020-10-31 15:00:00 15.6 11 Noroeste 30 Noroeste 0 -- -- 79
2020-10-31 14:00:00 14.4 10 Noroeste 28 Oeste 0 -- -- 84
2020-10-31 13:00:00 13.1 13 Oeste 25 Oeste 0 -- -- 88
2020-10-31 12:00:00 12.8 13 Noroeste 22 Noroeste 0 -- -- 86
2020-10-31 11:00:00 10.8 13 Noroeste 28 Noroeste 0 -- -- 90
2020-10-31 10:00:00 10.8 10 Noroeste 17 Noroeste 0 -- -- 91
2020-10-31 09:00:00 9.4 8 Norte 17 Noroeste 0 -- -- 98
2020-10-31 08:00:00 8 9 Noroeste 17 Noroeste 0 -- -- 99
2020-10-31 07:00:00 6.2 3 Norte 8 Norte 0 -- -- 100
2020-10-31 06:00:00 5.2 2 Nordeste 4 Norte 0 -- -- 98
2020-10-31 05:00:00 5.7 0 Calma 9 Noroeste 0 -- -- 98
2020-10-31 04:00:00 6.2 2 Norte 11 Norte 0 -- -- 97
2020-10-31 03:00:00 6.7 4 Norte 20 Norte 0 -- -- 97
2020-10-31 02:00:00 5.6 9 Norte 16 Norte 0 -- -- 100
2020-10-31 01:00:00 4.8 2 Este 6 Este 0 -- -- 98
2020-10-31 00:00:00 4.6 3 Este 6 Este 0 -- -- 97
2020-10-30 23:00:00 5 2 Este 5 Sudeste 0 -- -- 96
2020-10-30 22:00:00 6 0 Calma 3 Este 0 -- -- 95
2020-10-30 21:00:00 6.9 2 Este 4 Norte 0 -- -- 93
2020-10-30 20:00:00 8.2 0 Calma 4 Oeste 0 -- -- 89
2020-10-30 19:00:00 10.4 3 Sudeste 15 Norte 0 -- -- 84
2020-10-30 18:00:00 14 11 Norte 23 Noroeste 0 -- -- 71
2020-10-30 17:00:00 16.2 9 Noroeste 26 Oeste 0 -- -- 63
2020-10-30 16:00:00 17.1 12 Noroeste 28 Noroeste 0 -- -- 63
2020-10-30 15:00:00 17.2 12 Noroeste 27 Noroeste 0 -- -- 64
2020-10-30 14:00:00 16.3 14 Noroeste 28 Norte 0 -- -- 65
2020-10-30 13:00:00 15.1 15 Noroeste 26 Oeste 0 -- -- 71
2020-10-30 12:00:00 13.6 9 Norte 26 Norte 0 -- -- 73
2020-10-30 11:00:00 11.5 6 Noroeste 26 Norte 0 -- -- 82
2020-10-30 10:00:00 7 4 Oeste 10 Norte 0 -- -- 100
2020-10-30 09:00:00 2.2 0 Calma 6 Norte 0 -- -- 99
2020-10-30 08:00:00 1.9 7 Noroeste 13 Norte 0 -- -- 100
2020-10-30 07:00:00 0.5 0 Calma 5 Norte 0 -- -- 98
2020-10-30 06:00:00 0.6 0 Calma 4 Oeste 0 -- -- 98
2020-10-30 05:00:00 0.6 3 Nordeste 6 Sudeste 0 -- -- 98
2020-10-30 04:00:00 1.4 3 Este 4 Este 0 -- -- 98
2020-10-30 03:00:00 1.6 0 Calma 9 Norte 0 -- -- 97
2020-10-30 02:00:00 2.1 0 Calma 5 Este 0 -- -- 96
2020-10-30 01:00:00 3.8 5 Este 9 Este 0 -- -- 96
2020-10-30 00:00:00 4.7 0 Calma 9 Norte 0 -- -- 94
2020-10-29 23:00:00 7.4 8 Norte 13 Norte 0 -- -- 96
2020-10-29 22:00:00 7 4 Norte 13 Nordeste 0 -- -- 94
2020-10-29 21:00:00 7.1 2 Noroeste 13 Noroeste 0 -- -- 93
2020-10-29 20:00:00 9.3 3 Oeste 12 Oeste 0 -- -- 85
2020-10-29 19:00:00 11.2 4 Sudoeste 15 Oeste 0 -- -- 82
2020-10-29 18:00:00 13.2 8 Oeste 18 Oeste 0 -- -- 76
2020-10-29 17:00:00 15.6 10 Oeste 22 Oeste 0 -- -- 68
2020-10-29 16:00:00 15.9 10 Noroeste 26 Oeste 0 -- -- 68
2020-10-29 15:00:00 15.5 14 Oeste 23 Noroeste 0 -- -- 70
2020-10-29 14:00:00 14.9 13 Noroeste 26 Noroeste 0 -- -- 72
2020-10-29 13:00:00 14 15 Noroeste 24 Noroeste 0 -- -- 72
2020-10-29 12:00:00 12.7 10 Noroeste 20 Norte 0 -- -- 75
2020-10-29 11:00:00 8 4 Sur 8 Sur 0 -- -- 99
2020-10-29 10:00:00 5.5 3 Oeste 8 Oeste 0 -- -- 100
2020-10-29 09:00:00 3.4 3 Noroeste 6 Oeste 0 -- -- 100
2020-10-29 08:00:00 2.1 0 Calma 13 Sudeste 0 -- -- 99
2020-10-29 07:00:00 3.2 3 Este 11 Este 0 -- -- 99
2020-10-29 06:00:00 2.5 3 Este 9 Este 0 -- -- 99
2020-10-29 05:00:00 2.4 4 Sudeste 13 Este 0 -- -- 98
2020-10-29 04:00:00 2.3 6 Este 11 Este 0 -- -- 98
2020-10-29 03:00:00 2.4 3 Este 12 Este 0 -- -- 96
2020-10-29 02:00:00 3.1 2 Sudeste 14 Este 0 -- -- 96
2020-10-29 01:00:00 4.1 12 Este 15 Este 0 -- -- 96
2020-10-29 00:00:00 5 2 Este 11 Este 0 -- -- 94
2020-10-28 23:00:00 6.2 3 Este 11 Este 0 -- -- 93
2020-10-28 22:00:00 6.9 9 Este 12 Este 0 -- -- 94
2020-10-28 21:00:00 6.8 3 Nordeste 6 Oeste 0 -- -- 92
2020-10-28 20:00:00 7.8 2 Oeste 9 Sudeste 0 -- -- 89
2020-10-28 19:00:00 9.9 3 Sudeste 13 Noroeste 0 -- -- 80
2020-10-28 18:00:00 13.1 4 Norte 17 Norte 0 -- -- 68
2020-10-28 17:00:00 14.4 10 Norte 29 Norte 0 -- -- 64
2020-10-28 16:00:00 15.7 13 Norte 30 Norte 0 -- -- 60
2020-10-28 15:00:00 15.6 15 Noroeste 27 Norte 0 -- -- 62
2020-10-28 14:00:00 15.3 11 Noroeste 32 Noroeste 0 -- -- 64
2020-10-28 13:00:00 14.1 10 Norte 30 Noroeste 0 -- -- 69
2020-10-28 12:00:00 12.4 12 Norte 25 Noroeste 0 -- -- 77
2020-10-28 11:00:00 11.7 10 Norte 24 Norte 0 -- -- 80
2020-10-28 10:00:00 10.4 8 Noroeste 15 Noroeste 0 -- -- 91
2020-10-28 09:00:00 9.9 5 Noroeste 10 Norte 0 -- -- 96
2020-10-28 08:00:00 10 3 Oeste 13 Norte 0 -- -- 98
2020-10-28 07:00:00 10 6 Norte 17 Norte 0.2 -- -- 98
2020-10-28 06:00:00 9.9 9 Norte 17 Norte 0 -- -- 98
2020-10-28 05:00:00 9.8 10 Norte 19 Norte 0.2 -- -- 98
2020-10-28 04:00:00 9.7 5 Norte 12 Noroeste 0.4 -- -- 98
2020-10-28 03:00:00 9.7 6 Norte 15 Norte 0.4 -- -- 98
2020-10-28 02:00:00 9.7 10 Norte 26 Norte 0 -- -- 97
2020-10-28 01:00:00 9.6 8 Noroeste 19 Norte 0.2 -- -- 97
2020-10-28 00:00:00 9.5 11 Norte 18 Norte 0.2 -- -- 97